Time;durP1;ratioP1;P1;durP2;ratioP2;P2;SDS_P1;SDS_P2;PMS_P1;PMS_P2;Temp;Humidity;BMP_temperature;BMP_pressure;BME280_temperature;BME280_humidity;BME280_pressure;Samples;Min_cycle;Max_cycle;Signal;HPM_P1;HPM_P2
2022/06/23 00:02:06;;;;;;;4.40;4.00;;;16.90;99.90;;;;;;5052026;28;20933;-64
2022/06/23 00:04:41;;;;;;;3.97;3.67;;;16.90;99.90;;;;;;5051223;28;20468;-65
2022/06/23 00:07:24;;;;;;;3.77;3.40;;;16.80;99.90;;;;;;5051964;28;20506;-65
2022/06/23 00:09:52;;;;;;;6.00;3.70;;;16.80;99.90;;;;;;5051931;28;20453;-65
2022/06/23 00:12:18;;;;;;;5.70;4.80;;;16.80;99.90;;;;;;5051990;28;20440;-65
2022/06/23 00:15:07;;;;;;;3.60;3.30;;;16.70;99.90;;;;;;5051383;28;20946;-65
2022/06/23 00:17:42;;;;;;;4.80;4.27;;;16.70;99.90;;;;;;5005229;28;20178;-65
2022/06/23 00:20:23;;;;;;;3.63;2.90;;;16.60;99.90;;;;;;5051923;28;20402;-65
2022/06/23 00:22:55;;;;;;;5.70;3.53;;;16.70;99.90;;;;;;5051754;28;20419;-65
2022/06/23 00:25:40;;;;;;;3.57;3.27;;;16.60;99.90;;;;;;5051228;28;20463;-65
2022/06/23 00:28:11;;;;;;;4.90;3.60;;;16.50;99.90;;;;;;5051286;28;20864;-65
2022/06/23 00:30:41;;;;;;;5.20;3.50;;;16.50;99.90;;;;;;5051462;28;20827;-65
2022/06/23 00:33:16;;;;;;;3.67;3.10;;;16.50;99.90;;;;;;5051362;28;20512;-65
2022/06/23 00:35:41;;;;;;;3.83;3.50;;;16.50;99.90;;;;;;5051178;28;20862;-65
2022/06/23 00:38:23;;;;;;;3.93;3.40;;;16.40;99.90;;;;;;5051299;28;20451;-65
2022/06/23 00:40:49;;;;;;;7.03;4.70;;;16.40;99.90;;;;;;5051481;28;20483;-65
2022/06/23 00:43:17;;;;;;;4.53;4.10;;;16.40;99.90;;;;;;5051138;28;20398;-65
2022/06/23 00:45:53;;;;;;;3.53;3.10;;;16.40;99.90;;;;;;5050821;28;20434;-65
2022/06/23 00:48:37;;;;;;;4.13;3.73;;;16.30;99.90;;;;;;5051186;28;20452;-65
2022/06/23 00:51:26;;;;;;;3.83;3.17;;;16.30;99.90;;;;;;5051387;28;20766;-65
2022/06/23 00:54:23;;;;;;;4.23;3.93;;;16.30;99.90;;;;;;5051047;28;20393;-65
2022/06/23 00:57:07;;;;;;;4.70;3.80;;;16.20;99.90;;;;;;4999272;28;20540;-66
2022/06/23 01:00:05;;;;;;;4.33;3.73;;;16.30;99.90;;;;;;5051164;28;20415;-65
2022/06/23 01:02:39;;;;;;;5.20;3.87;;;16.20;99.90;;;;;;5051110;28;20417;-65
2022/06/23 01:05:15;;;;;;;8.20;4.67;;;16.20;99.90;;;;;;5032617;28;20788;-65
2022/06/23 01:07:56;;;;;;;5.60;4.50;;;16.20;99.90;;;;;;5051035;28;20415;-65
2022/06/23 01:10:46;;;;;;;4.30;3.90;;;16.20;99.90;;;;;;5050910;28;20831;-65
2022/06/23 01:13:14;;;;;;;6.13;4.43;;;16.10;99.90;;;;;;5050794;28;20531;-67
2022/06/23 01:15:52;;;;;;;6.97;3.87;;;16.10;99.90;;;;;;5032341;28;20446;-65
2022/06/23 01:18:35;;;;;;;4.13;3.67;;;16.10;99.90;;;;;;5053728;28;20500;-64
2022/06/23 01:21:12;;;;;;;6.00;3.90;;;16.10;99.90;;;;;;5054837;28;20405;-65
2022/06/23 01:24:20;;;;;;;3.97;3.50;;;16.10;99.90;;;;;;5054665;28;20443;-65
2022/06/23 01:27:30;;;;;;;4.93;3.83;;;16.10;99.90;;;;;;5054259;28;20425;-65
2022/06/23 01:30:03;;;;;;;5.70;3.50;;;16.00;99.90;;;;;;5007578;28;20472;-65
2022/06/23 01:32:46;;;;;;;5.03;3.37;;;16.00;99.90;;;;;;5054855;28;20397;-65
2022/06/23 01:35:27;;;;;;;4.70;3.23;;;16.00;99.90;;;;;;5054313;28;20429;-65
2022/06/23 01:37:59;;;;;;;5.93;4.63;;;16.10;99.90;;;;;;5036299;28;20425;-65
2022/06/23 01:40:41;;;;;;;5.03;4.13;;;16.00;99.90;;;;;;5054235;28;20401;-65
2022/06/23 01:43:17;;;;;;;5.67;3.70;;;16.00;99.90;;;;;;5054600;28;20424;-66
2022/06/23 01:46:00;;;;;;;4.43;4.03;;;16.00;99.90;;;;;;5053901;28;20432;-65
2022/06/23 01:48:51;;;;;;;4.30;3.90;;;16.00;99.90;;;;;;5036385;28;20485;-65
2022/06/23 01:51:39;;;;;;;6.03;3.83;;;16.00;99.90;;;;;;5054211;28;20459;-65
2022/06/23 01:54:21;;;;;;;5.67;4.50;;;15.90;99.90;;;;;;5054057;28;20775;-65
2022/06/23 01:57:12;;;;;;;4.27;3.87;;;16.00;99.90;;;;;;5053689;28;20444;-65
2022/06/23 01:59:51;;;;;;;5.00;3.57;;;15.90;99.90;;;;;;5040362;28;20522;-66
2022/06/23 02:02:22;;;;;;;4.30;3.90;;;15.90;99.90;;;;;;5053815;28;20504;-65
2022/06/23 02:04:54;;;;;;;5.57;3.50;;;15.90;99.90;;;;;;5053778;28;20500;-65
2022/06/23 02:07:41;;;;;;;4.60;4.20;;;15.80;99.90;;;;;;5053805;28;20420;-65
2022/06/23 02:10:18;;;;;;;6.20;4.63;;;15.70;99.90;;;;;;5053561;28;20536;-65
2022/06/23 02:13:02;;;;;;;5.93;3.87;;;15.70;99.90;;;;;;5053569;28;20405;-65
2022/06/23 02:15:34;;;;;;;4.80;3.70;;;15.60;99.90;;;;;;5053240;28;20464;-66
2022/06/23 02:18:33;;;;;;;4.00;3.63;;;15.60;99.90;;;;;;5053683;28;20490;-65
2022/06/23 02:21:02;;;;;;;4.30;3.90;;;15.60;99.90;;;;;;5020250;28;20510;-65
2022/06/23 02:23:30;;;;;;;6.63;4.50;;;15.50;99.90;;;;;;5053085;28;20397;-65
2022/06/23 02:26:19;;;;;;;3.67;3.37;;;15.50;99.90;;;;;;5052969;28;20417;-65
2022/06/23 02:29:09;;;;;;;3.97;3.57;;;15.50;99.90;;;;;;5053059;28;20449;-66
2022/06/23 02:31:52;;;;;;;7.33;4.10;;;15.50;99.90;;;;;;5052823;28;20939;-66
2022/06/23 02:34:40;;;;;;;4.47;3.90;;;15.50;99.90;;;;;;5053655;28;20910;-66
2022/06/23 02:37:44;;;;;;;6.03;3.90;;;15.40;99.90;;;;;;5053817;28;20394;-66
2022/06/23 02:40:37;;;;;;;5.20;4.70;;;15.50;99.90;;;;;;5052983;28;20492;-66
2022/06/23 02:43:10;;;;;;;5.33;4.47;;;15.50;99.90;;;;;;5043199;28;20428;-65
2022/06/23 02:45:56;;;;;;;3.50;3.20;;;15.40;99.90;;;;;;5052826;28;20876;-66
2022/06/23 02:48:41;;;;;;;5.57;3.83;;;15.40;99.90;;;;;;5053100;28;20436;-66
2022/06/23 02:51:30;;;;;;;5.13;4.20;;;15.40;99.90;;;;;;5035260;28;20449;-65
2022/06/23 02:54:10;;;;;;;5.33;3.60;;;15.40;99.90;;;;;;5053273;28;20497;-65
2022/06/23 02:57:02;;;;;;;4.40;4.00;;;15.40;99.90;;;;;;5052688;28;20488;-65
2022/06/23 02:59:55;;;;;;;4.70;3.77;;;15.40;99.90;;;;;;5052912;28;20435;-65
2022/06/23 03:02:33;;;;;;;4.60;4.20;;;15.40;99.90;;;;;;5053021;28;20424;-65
2022/06/23 03:05:02;;;;;;;11.97;4.10;;;15.50;99.90;;;;;;5052593;28;20461;-65
2022/06/23 03:07:48;;;;;;;4.50;4.07;;;15.40;99.90;;;;;;5052806;28;20449;-65
2022/06/23 03:10:41;;;;;;;4.30;3.87;;;15.40;99.90;;;;;;5052875;28;20464;-65
2022/06/23 03:13:29;;;;;;;6.50;4.60;;;15.40;99.90;;;;;;5051750;28;20509;-66
2022/06/23 03:16:19;;;;;;;6.27;4.87;;;15.40;99.90;;;;;;5052307;28;20784;-66
2022/06/23 03:18:47;;;;;;;5.20;4.40;;;15.30;99.90;;;;;;5052731;28;20405;-66
2022/06/23 03:21:20;;;;;;;4.47;4.07;;;15.30;99.90;;;;;;5052786;28;20463;-66
2022/06/23 03:23:55;;;;;;;7.57;4.97;;;15.40;99.90;;;;;;5053367;28;20447;-66
2022/06/23 03:26:27;;;;;;;5.40;4.00;;;15.40;99.90;;;;;;5035295;28;20491;-66
2022/06/23 03:29:24;;;;;;;10.33;4.43;;;15.40;99.90;;;;;;5052399;28;20445;-66
2022/06/23 03:32:05;;;;;;;6.93;3.90;;;15.40;99.90;;;;;;5052419;28;20821;-66
2022/06/23 03:34:44;;;;;;;4.73;4.27;;;15.40;99.90;;;;;;5052554;28;20444;-66
2022/06/23 03:37:14;;;;;;;6.60;4.10;;;15.40;99.90;;;;;;5052151;28;20412;-66
2022/06/23 03:42:42;;;;;;;7.33;3.97;;;15.50;99.90;;;;;;5052214;28;20524;-66
2022/06/23 03:45:27;;;;;;;4.77;4.27;;;15.50;99.90;;;;;;5052050;28;20482;-66
2022/06/23 03:48:07;;;;;;;7.57;4.80;;;15.60;99.90;;;;;;5051926;28;20410;-65
2022/06/23 03:50:51;;;;;;;4.70;4.07;;;15.50;99.90;;;;;;5052225;28;20903;-67
2022/06/23 03:53:37;;;;;;;5.70;4.30;;;15.50;99.90;;;;;;5051927;28;20904;-65
2022/06/23 03:56:09;;;;;;;4.43;4.03;;;15.60;99.90;;;;;;5051535;28;20499;-66
2022/06/23 03:58:47;;;;;;;6.50;4.07;;;15.70;99.90;;;;;;5051618;28;20444;-66
2022/06/23 04:01:21;;;;;;;5.73;4.23;;;15.70;99.90;;;;;;5051566;28;20425;-66
2022/06/23 04:04:02;;;;;;;5.03;4.00;;;15.80;99.90;;;;;;5051811;28;20409;-66
2022/06/23 04:06:42;;;;;;;8.00;4.30;;;15.80;99.90;;;;;;5051388;28;20843;-66
2022/06/23 04:09:18;;;;;;;4.77;4.13;;;15.90;99.90;;;;;;5051482;28;20451;-66
2022/06/23 04:12:03;;;;;;;4.60;3.50;;;16.00;99.90;;;;;;5051413;28;20401;-66
2022/06/23 04:14:47;;;;;;;3.70;3.40;;;16.10;99.90;;;;;;5051374;28;20472;-66
2022/06/23 04:17:14;;;;;;;4.03;3.63;;;16.50;99.90;;;;;;5051222;28;20453;-66
2022/06/23 04:19:47;;;;;;;5.23;3.17;;;17.80;99.90;;;;;;5051137;28;20503;-66
2022/06/23 04:22:38;;;;;;;3.37;3.07;;;18.90;99.90;;;;;;5051150;28;20761;-66
2022/06/23 04:25:07;;;;;;;3.03;2.23;;;19.90;99.90;;;;;;5049959;28;20529;-65
2022/06/23 04:27:40;;;;;;;4.10;2.47;;;20.40;99.90;;;;;;5051377;28;20413;-66
2022/06/23 04:30:06;;;;;;;3.77;2.53;;;20.70;99.90;;;;;;5051314;28;20453;-65
2022/06/23 04:32:35;;;;;;;4.13;2.63;;;20.90;99.90;;;;;;5051017;28;20395;-65
2022/06/23 04:35:04;;;;;;;5.53;2.50;;;21.10;99.90;;;;;;5050715;28;20861;-66
2022/06/23 04:37:39;;;;;;;2.83;2.53;;;21.20;99.90;;;;;;5051366;28;20396;-65
2022/06/23 04:40:34;;;;;;;2.50;2.30;;;21.50;99.90;;;;;;5051122;28;20504;-65
2022/06/23 04:43:12;;;;;;;3.00;2.40;;;21.80;99.90;;;;;;5050677;28;20766;-65
2022/06/23 04:45:55;;;;;;;2.60;2.40;;;21.60;99.90;;;;;;5050790;28;20628;-66
2022/06/23 04:48:28;;;;;;;2.40;2.20;;;21.40;99.90;;;;;;5032871;28;20456;-66
2022/06/23 04:50:59;;;;;;;3.93;2.53;;;21.50;99.90;;;;;;5051174;28;20411;-65
2022/06/23 04:53:43;;;;;;;3.50;2.80;;;20.50;99.90;;;;;;5051022;28;20930;-66
2022/06/23 04:56:40;;;;;;;2.23;1.90;;;20.10;99.90;;;;;;5050425;28;20817;-66
2022/06/23 04:59:23;;;;;;;2.57;2.27;;;20.50;99.90;;;;;;5043133;28;20421;-66
2022/06/23 05:01:50;;;;;;;3.17;2.30;;;20.80;99.90;;;;;;5050820;28;20414;-66
2022/06/23 05:04:23;;;;;;;1.87;1.77;;;21.10;99.90;;;;;;5050825;28;20414;-66
2022/06/23 05:06:52;;;;;;;2.20;2.00;;;21.60;99.90;;;;;;5050501;28;20427;-66
2022/06/23 05:09:27;;;;;;;2.30;2.07;;;21.40;99.90;;;;;;5050634;28;20495;-66
2022/06/23 05:12:00;;;;;;;2.57;1.97;;;21.50;99.90;;;;;;5050586;28;20835;-66
2022/06/23 05:14:42;;;;;;;2.37;2.17;;;21.60;99.90;;;;;;5050652;28;20444;-67
2022/06/23 05:17:15;;;;;;;2.40;2.13;;;21.80;99.90;;;;;;5051514;28;20404;-66
2022/06/23 05:19:42;;;;;;;2.77;2.50;;;22.10;99.90;;;;;;5050798;28;20499;-66
2022/06/23 05:22:23;;;;;;;4.83;2.00;;;22.30;99.90;;;;;;5051089;28;20405;-66
2022/06/23 05:24:50;;;;;;;5.17;2.47;;;22.10;99.90;;;;;;5050192;28;20404;-66
2022/06/23 05:27:23;;;;;;;2.43;1.80;;;22.40;99.90;;;;;;5050889;28;20404;-66
2022/06/23 05:30:25;;;;;;;1.93;1.73;;;22.70;99.90;;;;;;5050491;28;20460;-66
2022/06/23 05:33:00;;;;;;;2.53;2.07;;;23.00;99.90;;;;;;5050596;28;20392;-66
2022/06/23 05:35:42;;;;;;;2.20;1.97;;;23.30;99.90;;;;;;5050331;28;20434;-66
2022/06/23 05:38:23;;;;;;;1.73;1.63;;;23.00;99.90;;;;;;5050671;28;20439;-66
2022/06/23 05:40:54;;;;;;;2.50;2.30;;;23.30;99.90;;;;;;5050703;28;20439;-66
2022/06/23 05:43:20;;;;;;;3.13;1.67;;;23.20;99.90;;;;;;5050173;28;20935;-66
2022/06/23 05:45:58;;;;;;;2.13;1.93;;;23.40;99.70;;;;;;5050214;28;20423;-66
2022/06/23 05:48:30;;;;;;;2.83;1.73;;;23.50;99.50;;;;;;5050464;28;20409;-66
2022/06/23 05:51:10;;;;;;;2.33;1.73;;;24.40;98.60;;;;;;5050356;28;20903;-66
2022/06/23 05:54:02;;;;;;;2.00;1.67;;;24.30;97.40;;;;;;5050462;28;20401;-66
2022/06/23 05:56:36;;;;;;;1.67;1.57;;;24.10;98.30;;;;;;5072074;22;20924;-68
2022/06/23 05:59:27;;;;;;;3.00;1.90;;;24.20;97.40;;;;;;5044818;28;20790;-69
2022/06/23 06:02:07;;;;;;;2.40;2.20;;;24.20;97.70;;;;;;5054092;28;20882;-68
2022/06/23 06:04:41;;;;;;;5.70;2.30;;;24.50;97.10;;;;;;5058607;28;20400;-69
2022/06/23 06:07:11;;;;;;;1.93;1.73;;;24.50;96.80;;;;;;5060010;28;20416;-68
2022/06/23 06:09:40;;;;;;;2.77;2.00;;;24.40;97.30;;;;;;5058528;28;20460;-69
2022/06/23 06:12:19;;;;;;;2.77;2.57;;;24.70;96.30;;;;;;5056626;28;20721;-69
2022/06/23 06:14:58;;;;;;;3.60;2.20;;;24.70;95.90;;;;;;5055055;28;20404;-68
2022/06/23 06:17:28;;;;;;;2.30;1.80;;;24.60;96.20;;;;;;5055727;28;20423;-69
2022/06/23 06:19:56;;;;;;;2.40;1.77;;;25.40;95.50;;;;;;5056719;28;20778;-69
2022/06/23 06:22:50;;;;;;;2.10;1.90;;;25.00;95.20;;;;;;5057004;28;20760;-70
2022/06/23 06:25:23;;;;;;;2.57;2.37;;;24.90;95.30;;;;;;5054829;28;20413;-69
2022/06/23 06:27:49;;;;;;;5.93;2.10;;;24.70;95.90;;;;;;5055868;28;20471;-69
2022/06/23 06:30:28;;;;;;;1.83;1.73;;;24.80;94.90;;;;;;5037570;28;20917;-69
2022/06/23 06:32:55;;;;;;;2.40;1.80;;;25.60;95.00;;;;;;5055385;28;20492;-69
2022/06/23 06:35:36;;;;;;;1.80;1.70;;;25.80;93.90;;;;;;5055075;28;20483;-69
2022/06/23 06:38:07;;;;;;;1.83;1.73;;;26.00;93.30;;;;;;5055886;28;20492;-69
2022/06/23 06:40:36;;;;;;;3.70;2.23;;;25.70;93.60;;;;;;5055966;28;20412;-69
2022/06/23 06:43:11;;;;;;;2.07;1.90;;;25.80;93.70;;;;;;5055551;28;20412;-69
2022/06/23 06:45:37;;;;;;;1.83;1.70;;;26.30;92.80;;;;;;5055993;28;20503;-69
2022/06/23 06:48:09;;;;;;;1.77;1.67;;;26.20;92.80;;;;;;5057562;28;20417;-69
2022/06/23 06:50:42;;;;;;;2.30;1.70;;;26.40;92.40;;;;;;5057425;28;20483;-68
2022/06/23 06:53:32;;;;;;;2.43;1.80;;;27.10;92.20;;;;;;5057323;28;20425;-69
2022/06/23 06:56:19;;;;;;;2.33;1.83;;;27.00;91.20;;;;;;5055932;28;20487;-68
2022/06/23 06:59:02;;;;;;;1.93;1.83;;;26.80;91.30;;;;;;5055881;28;20397;-69
2022/06/23 07:01:30;;;;;;;2.23;2.13;;;25.80;92.10;;;;;;5056773;28;20800;-69
2022/06/23 07:03:56;;;;;;;2.57;1.83;;;26.40;92.60;;;;;;5054948;28;20915;-68
2022/06/23 07:06:36;;;;;;;2.40;2.03;;;27.10;91.90;;;;;;5053973;28;20432;-68
2022/06/23 07:09:16;;;;;;;3.00;2.13;;;27.90;89.50;;;;;;5054143;28;20187;-67
2022/06/23 07:11:58;;;;;;;3.93;1.80;;;27.40;90.70;;;;;;5054048;28;20381;-68
2022/06/23 07:14:37;;;;;;;3.10;1.90;;;28.20;89.80;;;;;;5052964;28;20873;-69
2022/06/23 07:17:30;;;;;;;2.03;1.83;;;27.70;88.30;;;;;;5054083;28;20784;-68
2022/06/23 07:20:12;;;;;;;1.90;1.80;;;27.70;89.20;;;;;;5054081;28;20425;-68
2022/06/23 07:23:01;;;;;;;2.03;1.90;;;27.40;89.30;;;;;;5054187;28;20747;-68
2022/06/23 07:25:32;;;;;;;3.73;3.10;;;28.20;88.90;;;;;;5053490;28;20421;-69
2022/06/23 07:28:09;;;;;;;2.47;1.93;;;28.70;85.80;;;;;;5053772;28;20451;-68
2022/06/23 07:30:42;;;;;;;2.53;1.40;;;28.70;86.40;;;;;;5054356;28;20496;-69
2022/06/23 07:33:15;;;;;;;2.03;1.93;;;28.50;83.90;;;;;;5054301;28;20408;-69
2022/06/23 07:36:12;;;;;;;2.87;2.10;;;27.60;86.00;;;;;;5055180;28;20428;-69
2022/06/23 07:38:50;;;;;;;2.13;1.90;;;28.50;84.10;;;;;;5053444;28;20446;-69
2022/06/23 07:41:34;;;;;;;4.73;1.50;;;28.70;84.10;;;;;;5053662;28;20779;-68
2022/06/23 07:44:04;;;;;;;2.13;1.60;;;29.30;82.30;;;;;;5054140;28;20462;-68
2022/06/23 07:46:32;;;;;;;3.23;1.50;;;30.70;78.80;;;;;;5053846;28;20997;-68
2022/06/23 07:48:57;;;;;;;1.70;1.60;;;29.90;80.70;;;;;;5054749;28;20452;-69
2022/06/23 07:51:25;;;;;;;2.97;2.47;;;30.00;76.70;;;;;;5056573;28;20691;-69
2022/06/23 07:53:53;;;;;;;2.37;1.80;;;30.40;75.70;;;;;;5060116;28;20232;-70
2022/06/23 07:56:22;;;;;;;1.70;1.57;;;30.10;74.40;;;;;;5056855;28;20472;-70
2022/06/23 07:58:52;;;;;;;1.33;1.23;;;29.70;75.50;;;;;;5054148;28;20777;-70
2022/06/23 08:01:39;;;;;;;1.40;1.30;;;29.90;73.80;;;;;;5054817;28;20418;-69
2022/06/23 08:04:21;;;;;;;2.10;1.87;;;29.70;75.90;;;;;;5053976;28;20455;-69
2022/06/23 08:06:47;;;;;;;1.67;1.53;;;29.50;76.40;;;;;;5052709;28;20425;-69
2022/06/23 08:09:25;;;;;;;1.67;1.57;;;29.30;75.00;;;;;;5035114;28;20453;-69
2022/06/23 08:14:43;;;;;;;2.40;1.50;;;30.50;73.00;;;;;;5053168;28;20385;-70
2022/06/23 08:17:14;;;;;;;3.77;1.70;;;30.50;73.60;;;;;;5053135;28;20417;-69
2022/06/23 08:19:45;;;;;;;1.60;1.50;;;30.20;75.30;;;;;;5053361;28;20398;-69
2022/06/23 08:22:12;;;;;;;1.70;1.40;;;31.20;70.70;;;;;;5055426;28;20469;-68
2022/06/23 08:24:41;;;;;;;1.93;1.50;;;31.30;70.70;;;;;;5056005;28;20903;-68
2022/06/23 08:27:11;;;;;;;2.27;1.37;;;30.80;71.30;;;;;;5056276;28;20468;-68
2022/06/23 08:29:43;;;;;;;1.67;1.30;;;29.90;72.20;;;;;;5055772;28;20455;-69
2022/06/23 08:32:09;;;;;;;1.80;1.70;;;29.50;73.40;;;;;;5054921;28;20455;-68
2022/06/23 08:34:37;;;;;;;2.03;1.40;;;30.10;69.30;;;;;;5052800;28;20417;-68
2022/06/23 08:37:11;;;;;;;3.00;1.43;;;30.60;69.70;;;;;;5052466;28;20461;-68
2022/06/23 08:39:50;;;;;;;1.50;1.40;;;31.00;70.60;;;;;;5053457;28;20412;-68
2022/06/23 08:42:34;;;;;;;3.57;1.83;;;30.40;67.40;;;;;;5052651;28;20397;-68
2022/06/23 08:45:19;;;;;;;1.57;1.47;;;30.40;68.50;;;;;;5053041;28;20938;-68
2022/06/23 08:48:30;;;;;;;1.70;1.50;;;31.00;67.50;;;;;;5052577;28;20413;-68
2022/06/23 08:51:09;;;;;;;1.73;1.40;;;30.90;66.70;;;;;;4971592;28;20813;-68
2022/06/23 08:53:52;;;;;;;2.00;1.60;;;30.20;67.60;;;;;;5048977;28;20413;-68
2022/06/23 08:56:24;;;;;;;3.10;1.40;;;30.40;67.00;;;;;;5051883;28;20440;-68
2022/06/23 08:59:04;;;;;;;4.23;2.53;;;30.90;66.30;;;;;;5052365;28;20409;-69
2022/06/23 09:01:55;;;;;;;1.53;1.43;;;32.00;63.60;;;;;;5052560;28;20427;-69
2022/06/23 09:04:38;;;;;;;1.60;1.50;;;32.00;60.60;;;;;;5052506;28;20427;-68
2022/06/23 09:07:44;;;;;;;2.90;1.57;;;32.20;60.00;;;;;;5052306;28;20847;-69
2022/06/23 09:10:13;;;;;;;1.90;1.80;;;31.50;63.70;;;;;;5010080;28;20464;-69
2022/06/23 09:12:55;;;;;;;1.43;1.33;;;30.80;63.10;;;;;;5055874;28;20435;-69
2022/06/23 09:15:59;;;;;;;1.57;1.47;;;29.30;64.10;;;;;;5055479;28;20452;-69
2022/06/23 09:18:34;;;;;;;1.70;1.60;;;29.50;66.50;;;;;;5041981;28;20417;-68
2022/06/23 09:21:33;;;;;;;1.70;1.60;;;30.70;64.70;;;;;;5051945;28;20399;-68
2022/06/23 09:24:16;;;;;;;1.63;1.33;;;30.90;63.50;;;;;;5051880;28;20401;-68
2022/06/23 09:27:07;;;;;;;1.43;1.33;;;31.90;63.10;;;;;;5052221;28;20459;-69
2022/06/23 09:30:04;;;;;;;2.67;1.27;;;32.40;60.30;;;;;;5052974;28;20449;-69
2022/06/23 09:33:06;;;;;;;2.27;1.40;;;31.90;58.60;;;;;;5042081;28;20432;-70
2022/06/23 09:35:55;;;;;;;1.63;1.53;;;31.30;58.60;;;;;;5042052;28;20441;-69
2022/06/23 09:38:55;;;;;;;1.60;1.37;;;32.00;58.20;;;;;;5056733;28;20515;-68
2022/06/23 09:41:58;;;;;;;2.83;1.73;;;30.10;60.60;;;;;;5060676;28;20397;-68
2022/06/23 09:44:35;;;;;;;1.80;1.40;;;31.10;59.60;;;;;;5056724;28;20412;-68
2022/06/23 09:47:21;;;;;;;1.77;1.67;;;31.60;57.90;;;;;;5055864;28;20420;-68
2022/06/23 09:49:58;;;;;;;2.03;1.40;;;31.40;57.90;;;;;;5055851;28;20550;-68
2022/06/23 09:52:47;;;;;;;3.87;2.03;;;31.70;57.70;;;;;;5055648;28;20766;-68
2022/06/23 09:55:21;;;;;;;1.87;1.57;;;31.70;57.00;;;;;;5017396;28;20449;-68
2022/06/23 09:57:58;;;;;;;1.40;1.20;;;31.80;57.20;;;;;;5055585;28;20416;-68
2022/06/23 10:00:46;;;;;;;1.70;1.60;;;31.40;57.00;;;;;;5055729;28;20389;-68
2022/06/23 10:03:36;;;;;;;1.43;1.33;;;30.80;56.30;;;;;;5055466;28;20768;-68
2022/06/23 10:06:30;;;;;;;1.53;1.43;;;31.60;55.50;;;;;;5054545;28;20783;-69
2022/06/23 10:09:08;;;;;;;1.10;1.00;;;31.70;55.10;;;;;;5055280;28;20547;-68
2022/06/23 10:11:52;;;;;;;1.47;1.37;;;30.70;55.30;;;;;;5055000;28;20405;-67
2022/06/23 10:14:45;;;;;;;3.00;1.77;;;30.40;57.30;;;;;;5054533;28;20493;-67
2022/06/23 10:17:29;;;;;;;1.70;1.60;;;30.30;56.50;;;;;;5054789;28;20464;-67
2022/06/23 10:20:38;;;;;;;1.70;1.60;;;29.90;56.10;;;;;;5054634;28;20459;-68
2022/06/23 10:23:15;;;;;;;1.90;1.50;;;29.20;58.50;;;;;;5011878;28;20424;-68
2022/06/23 10:25:53;;;;;;;2.20;1.60;;;29.00;57.10;;;;;;5054512;28;20417;-68
2022/06/23 10:28:51;;;;;;;1.60;1.50;;;29.30;57.00;;;;;;5054973;28;20879;-68
2022/06/23 10:31:36;;;;;;;2.47;1.80;;;28.90;58.30;;;;;;5057104;28;20429;-68
2022/06/23 10:34:31;;;;;;;1.77;1.67;;;29.00;58.20;;;;;;5056305;28;20386;-69
2022/06/23 10:37:22;;;;;;;1.70;1.60;;;29.20;56.60;;;;;;5054482;28;20434;-69
2022/06/23 10:40:06;;;;;;;1.70;1.60;;;28.90;56.90;;;;;;5055035;28;20778;-69
2022/06/23 10:43:00;;;;;;;1.40;1.30;;;28.70;57.40;;;;;;5054975;28;20408;-68
2022/06/23 10:45:49;;;;;;;1.53;1.40;;;28.90;57.20;;;;;;5054499;28;20902;-68
2022/06/23 10:48:58;;;;;;;2.33;1.50;;;28.60;55.60;;;;;;5054703;28;20881;-68
2022/06/23 10:51:36;;;;;;;1.80;1.10;;;28.10;55.20;;;;;;5054374;28;20829;-68
2022/06/23 10:54:30;;;;;;;1.50;1.40;;;27.90;56.60;;;;;;5053981;28;20477;-68
2022/06/23 10:57:19;;;;;;;1.87;1.23;;;28.00;56.60;;;;;;5053718;28;20610;-68
2022/06/23 11:00:19;;;;;;;1.30;1.20;;;28.50;57.10;;;;;;5053760;28;20436;-68
2022/06/23 11:02:47;;;;;;;2.40;1.50;;;28.80;57.70;;;;;;5022262;28;20420;-69
2022/06/23 11:05:35;;;;;;;1.43;1.33;;;28.60;56.90;;;;;;5053612;28;20432;-68
2022/06/23 11:08:12;;;;;;;3.17;1.53;;;28.70;58.10;;;;;;5054027;28;20403;-68
2022/06/23 11:11:05;;;;;;;1.60;1.50;;;28.60;58.20;;;;;;5053641;28;20447;-69
2022/06/23 11:13:45;;;;;;;2.13;1.83;;;28.60;58.20;;;;;;5053702;28;20411;-68
2022/06/23 11:16:39;;;;;;;1.97;1.60;;;28.30;57.90;;;;;;5054361;28;20802;-68
2022/06/23 11:19:34;;;;;;;2.47;1.33;;;28.10;57.20;;;;;;5025016;28;20858;-69
2022/06/23 11:22:28;;;;;;;3.30;1.80;;;28.30;57.00;;;;;;5054923;28;20799;-69
2022/06/23 11:25:30;;;;;;;1.83;1.70;;;28.10;56.90;;;;;;5054888;28;20873;-69
2022/06/23 11:28:18;;;;;;;1.73;1.63;;;28.20;57.00;;;;;;5061151;28;20482;-69
2022/06/23 11:30:55;;;;;;;1.73;1.53;;;28.30;56.80;;;;;;5055598;28;20467;-69
2022/06/23 11:33:58;;;;;;;1.70;1.60;;;28.10;56.70;;;;;;5054264;28;20509;-69
2022/06/23 11:36:38;;;;;;;1.33;1.23;;;28.40;56.00;;;;;;5054923;28;21018;-69
2022/06/23 11:39:19;;;;;;;1.53;1.43;;;28.60;56.60;;;;;;5054646;28;20859;-69
2022/06/23 11:42:12;;;;;;;1.00;0.90;;;28.30;55.10;;;;;;5054081;28;20400;-68
2022/06/23 11:44:59;;;;;;;2.40;1.30;;;28.40;55.50;;;;;;5054013;28;20411;-69
2022/06/23 11:47:33;;;;;;;1.40;1.30;;;28.60;56.10;;;;;;5053225;28;20400;-68
2022/06/23 11:50:26;;;;;;;1.60;1.23;;;28.50;55.80;;;;;;5053149;28;20486;-69
2022/06/23 11:53:22;;;;;;;1.63;1.50;;;28.40;56.10;;;;;;5053185;28;20398;-69
2022/06/23 11:56:06;;;;;;;1.30;1.20;;;28.20;56.70;;;;;;5053152;28;20440;-69
2022/06/23 11:58:43;;;;;;;1.57;1.47;;;28.30;57.20;;;;;;5052517;28;20486;-69
2022/06/23 12:01:18;;;;;;;1.57;1.27;;;28.50;56.40;;;;;;5052339;28;20403;-69
2022/06/23 12:03:44;;;;;;;1.53;1.43;;;28.40;56.70;;;;;;5052618;28;20772;-69
2022/06/23 12:06:17;;;;;;;1.87;1.47;;;28.70;56.90;;;;;;5052216;28;20427;-69
2022/06/23 12:09:05;;;;;;;1.53;1.43;;;28.70;56.50;;;;;;5052526;28;20249;-69
2022/06/23 12:11:33;;;;;;;1.53;1.10;;;28.50;55.40;;;;;;5052655;28;20400;-69
2022/06/23 12:14:02;;;;;;;3.33;1.30;;;28.50;55.70;;;;;;5052660;28;20459;-70
2022/06/23 12:16:29;;;;;;;1.50;1.40;;;28.60;56.40;;;;;;5053307;28;20437;-70
2022/06/23 12:19:03;;;;;;;2.00;1.30;;;28.50;55.90;;;;;;5053673;28;20769;-70
2022/06/23 12:21:58;;;;;;;1.23;1.13;;;28.70;55.90;;;;;;5053230;28;20409;-70
2022/06/23 12:24:47;;;;;;;1.40;1.30;;;28.70;55.70;;;;;;5052391;28;20756;-70
2022/06/23 12:27:35;;;;;;;4.60;1.53;;;28.50;56.00;;;;;;5052182;28;20492;-70
2022/06/23 12:30:07;;;;;;;2.40;1.50;;;28.40;56.40;;;;;;5052012;28;20543;-70
2022/06/23 12:32:42;;;;;;;1.70;1.60;;;28.50;56.50;;;;;;5052132;28;20411;-70
2022/06/23 12:35:25;;;;;;;1.50;1.40;;;28.50;56.40;;;;;;5052027;28;20411;-70
2022/06/23 12:38:06;;;;;;;1.57;1.47;;;28.70;57.00;;;;;;5052122;28;20814;-70
2022/06/23 12:40:52;;;;;;;2.13;1.70;;;28.70;56.10;;;;;;5052363;28;20452;-70
2022/06/23 12:43:31;;;;;;;2.07;1.43;;;28.70;55.90;;;;;;5051758;28;20490;-69
2022/06/23 12:46:12;;;;;;;2.50;1.60;;;28.70;56.20;;;;;;5051797;28;20535;-70
2022/06/23 12:49:02;;;;;;;2.47;1.80;;;28.70;57.20;;;;;;5051969;28;20419;-69
2022/06/23 12:51:56;;;;;;;2.10;1.53;;;28.90;57.60;;;;;;5053066;28;20497;-69
2022/06/23 12:54:48;;;;;;;3.23;1.80;;;28.90;55.60;;;;;;5051988;28;20403;-70
2022/06/23 12:57:35;;;;;;;1.70;1.60;;;28.80;56.90;;;;;;5051516;28;20989;-69
2022/06/23 13:00:10;;;;;;;4.40;3.00;;;28.90;56.80;;;;;;5051823;28;20408;-69
2022/06/23 13:02:44;;;;;;;1.53;1.43;;;28.90;57.10;;;;;;5051654;28;20561;-69
2022/06/23 13:05:15;;;;;;;2.17;1.80;;;28.90;56.90;;;;;;5051466;28;20462;-71
2022/06/23 13:07:43;;;;;;;1.37;1.27;;;29.00;57.60;;;;;;5051777;28;20409;-71
2022/06/23 13:10:21;;;;;;;1.47;1.33;;;29.00;56.90;;;;;;5052243;28;20814;-69
2022/06/23 13:13:15;;;;;;;2.10;2.00;;;28.80;56.80;;;;;;5052691;28;20405;-69
2022/06/23 13:15:58;;;;;;;3.60;1.57;;;29.10;57.70;;;;;;5063060;28;20426;-69
2022/06/23 13:18:41;;;;;;;1.50;1.40;;;29.20;57.60;;;;;;5056344;28;20403;-69
2022/06/23 13:21:20;;;;;;;2.40;1.70;;;29.30;56.80;;;;;;5055991;28;20408;-69
2022/06/23 13:23:51;;;;;;;1.50;1.40;;;29.20;57.30;;;;;;5055695;28;20410;-68
2022/06/23 13:26:22;;;;;;;1.70;1.60;;;29.30;57.30;;;;;;5055605;28;20593;-69
2022/06/23 13:29:14;;;;;;;2.10;1.90;;;29.30;57.20;;;;;;5055709;28;21058;-69
2022/06/23 13:31:42;;;;;;;2.13;1.93;;;29.30;57.80;;;;;;5054732;28;20798;-69
2022/06/23 13:34:18;;;;;;;2.20;2.00;;;29.00;57.10;;;;;;5055333;28;20772;-69
2022/06/23 13:37:03;;;;;;;1.50;1.40;;;28.90;57.10;;;;;;5055195;28;20436;-70
2022/06/23 13:39:35;;;;;;;1.90;1.80;;;29.00;57.20;;;;;;5055674;28;20427;-69
2022/06/23 13:42:23;;;;;;;1.70;1.60;;;29.30;56.70;;;;;;5055366;28;20397;-70
2022/06/23 13:45:07;;;;;;;1.30;1.20;;;29.30;55.70;;;;;;5054818;28;20384;-70
2022/06/23 13:47:45;;;;;;;1.90;1.40;;;29.30;55.60;;;;;;5055125;28;20396;-69
2022/06/23 13:50:20;;;;;;;1.60;1.50;;;29.40;56.00;;;;;;5055207;28;21050;-69
2022/06/23 13:52:56;;;;;;;1.50;1.40;;;29.40;54.70;;;;;;5055119;28;20405;-69
2022/06/23 13:55:32;;;;;;;1.40;1.30;;;29.30;54.50;;;;;;5055126;28;20450;-69
2022/06/23 13:58:19;;;;;;;3.23;1.70;;;29.40;53.90;;;;;;5055091;28;20397;-69
2022/06/23 14:00:44;;;;;;;4.03;1.60;;;29.50;53.90;;;;;;5055179;28;21063;-69
2022/06/23 14:03:49;;;;;;;1.30;1.20;;;29.50;53.50;;;;;;5054906;28;20420;-69